createdAt,value
2023-01-01T00:01:38.424Z,13.61
2023-01-01T00:04:04.789Z,13.55
2023-01-01T00:06:31.055Z,13.58
2023-01-01T00:08:57.333Z,13.63
2023-01-01T00:11:23.536Z,13.68
2023-01-01T00:13:49.750Z,13.57
2023-01-01T00:16:16.096Z,13.61
2023-01-01T00:18:42.351Z,13.69
2023-01-01T00:21:13.815Z,13.63
2023-01-01T00:23:40.066Z,13.75
2023-01-01T00:26:09.371Z,13.67
2023-01-01T00:28:35.602Z,13.62
2023-01-01T00:31:06.025Z,13.64
2023-01-01T00:33:32.244Z,13.59
2023-01-01T00:35:58.470Z,13.70
2023-01-01T00:38:24.678Z,13.74
2023-01-01T00:40:50.884Z,13.83
2023-01-01T00:43:17.193Z,13.73
2023-01-01T00:45:43.429Z,13.66
2023-01-01T00:48:10.814Z,13.76
2023-01-01T00:50:37.039Z,13.88
2023-01-01T00:53:03.238Z,13.88
2023-01-01T00:55:29.463Z,14.02
2023-01-01T00:57:55.663Z,13.98
2023-01-01T01:00:22.409Z,13.92
2023-01-01T01:02:48.739Z,13.91
2023-01-01T01:05:15.238Z,13.83
2023-01-01T01:07:41.687Z,13.96
2023-01-01T01:10:08.056Z,14.05
2023-01-01T01:12:34.480Z,14.09
2023-01-01T01:15:01.146Z,14.04
2023-01-01T01:17:27.465Z,14.16
2023-01-01T01:20:01.514Z,14.31
2023-01-01T01:22:29.242Z,14.18
2023-01-01T01:24:56.229Z,14.17
2023-01-01T01:27:22.444Z,14.27
2023-01-01T01:29:48.999Z,14.15
2023-01-01T01:32:15.270Z,14.09
2023-01-01T01:34:41.517Z,14.08
2023-01-01T01:37:07.736Z,14.01
2023-01-01T01:39:34.969Z,14.01
2023-01-01T01:42:01.215Z,13.99
2023-01-01T01:44:45.907Z,14.17
2023-01-01T01:47:35.426Z,14.19
2023-01-01T01:50:14.919Z,14.25
2023-01-01T01:52:47.721Z,14.25
2023-01-01T01:55:16.438Z,14.26
2023-01-01T01:57:42.671Z,14.29
2023-01-01T02:00:11.887Z,14.34
2023-01-01T02:02:40.462Z,14.31
2023-01-01T02:05:07.119Z,14.26
2023-01-01T02:07:33.657Z,14.34
2023-01-01T02:10:00.208Z,14.39
2023-01-01T02:12:26.649Z,14.44
2023-01-01T02:14:55.793Z,14.38
2023-01-01T02:17:36.968Z,14.43
2023-01-01T02:20:16.284Z,14.39
2023-01-01T02:22:50.004Z,14.45
2023-01-01T02:25:19.191Z,14.46
2023-01-01T02:27:57.920Z,14.35
2023-01-01T02:30:24.209Z,14.29
2023-01-01T02:33:03.244Z,14.26
2023-01-01T02:35:31.662Z,14.36
2023-01-01T02:37:59.167Z,14.40
2023-01-01T02:40:25.773Z,14.43
2023-01-01T02:42:52.307Z,14.36
2023-01-01T02:45:18.524Z,14.46
2023-01-01T02:47:44.975Z,14.29
2023-01-01T02:50:11.229Z,14.33
2023-01-01T02:52:46.626Z,14.45
2023-01-01T02:55:15.806Z,14.34
2023-01-01T02:57:43.631Z,14.28
2023-01-01T03:00:10.575Z,14.31
2023-01-01T03:02:46.664Z,14.40
2023-01-01T03:05:32.243Z,14.40
2023-01-01T03:07:58.966Z,14.38
2023-01-01T03:10:32.247Z,14.38
2023-01-01T03:13:04.467Z,14.28
2023-01-01T03:15:44.892Z,14.30
2023-01-01T03:18:16.997Z,14.22
2023-01-01T03:20:45.427Z,14.09
2023-01-01T03:23:20.477Z,14.05
2023-01-01T03:25:47.316Z,14.20
2023-01-01T03:28:18.998Z,14.17
2023-01-01T03:30:45.446Z,14.16
2023-01-01T03:33:13.023Z,14.33
2023-01-01T03:35:44.234Z,14.18
2023-01-01T03:38:11.201Z,14.25
2023-01-01T03:40:37.481Z,14.26
2023-01-01T03:43:06.152Z,14.16
2023-01-01T03:45:42.295Z,14.22
2023-01-01T03:48:09.362Z,14.33
2023-01-01T03:50:58.487Z,14.27
2023-01-01T03:53:29.280Z,14.34
2023-01-01T03:56:03.379Z,14.38
2023-01-01T03:58:45.636Z,14.38
2023-01-01T04:01:14.558Z,14.32
2023-01-01T04:03:40.942Z,14.18
2023-01-01T04:06:11.388Z,14.25
2023-01-01T04:08:37.787Z,14.33
2023-01-01T04:11:05.887Z,14.44
2023-01-01T04:13:45.331Z,14.28
2023-01-01T04:16:12.140Z,14.25
2023-01-01T04:18:38.391Z,14.20
2023-01-01T04:21:05.972Z,14.02
2023-01-01T04:23:32.534Z,13.99
2023-01-01T04:25:58.775Z,13.90
2023-01-01T04:28:24.991Z,13.94
2023-01-01T04:33:17.323Z,13.89
2023-01-01T04:35:43.544Z,13.84
2023-01-01T04:38:12.647Z,13.71
2023-01-01T04:40:49.340Z,13.68
2023-01-01T04:43:15.782Z,13.79
2023-01-01T04:45:42.487Z,13.76
2023-01-01T04:48:08.771Z,13.71
2023-01-01T04:50:40.523Z,13.70
2023-01-01T04:53:06.756Z,13.76
2023-01-01T04:55:40.994Z,13.74
2023-01-01T04:58:07.223Z,13.79
2023-01-01T05:00:36.527Z,13.83
2023-01-01T05:03:03.911Z,13.74
2023-01-01T05:05:30.546Z,13.76
2023-01-01T05:07:56.800Z,13.80
2023-01-01T05:10:23.152Z,13.78
2023-01-01T05:12:49.378Z,13.80
2023-01-01T05:15:15.589Z,13.79
2023-01-01T05:17:41.815Z,13.84
2023-01-01T05:20:08.407Z,13.73
2023-01-01T05:22:34.679Z,13.78
2023-01-01T05:25:00.920Z,13.80
2023-01-01T05:27:27.125Z,13.72
2023-01-01T05:29:55.015Z,13.87
2023-01-01T05:32:28.658Z,13.74
2023-01-01T05:34:54.891Z,13.68
2023-01-01T05:37:21.141Z,13.75
2023-01-01T05:39:47.637Z,13.74
2023-01-01T05:42:13.891Z,13.73
2023-01-01T05:44:40.133Z,13.59
2023-01-01T05:47:08.357Z,13.54
2023-01-01T05:49:35.614Z,13.64
2023-01-01T05:52:02.233Z,13.71
2023-01-01T05:54:28.553Z,13.78
2023-01-01T05:56:55.025Z,13.74
2023-01-01T05:59:28.106Z,13.72
2023-01-01T06:01:54.782Z,13.73
2023-01-01T06:04:23.519Z,13.85
2023-01-01T06:06:51.627Z,13.93
2023-01-01T06:09:18.219Z,13.88
2023-01-01T06:11:44.467Z,13.94
2023-01-01T06:14:13.354Z,13.99
2023-01-01T06:16:40.319Z,13.91
2023-01-01T06:19:06.830Z,13.94
2023-01-01T06:21:33.083Z,13.96
2023-01-01T06:23:59.335Z,13.88
2023-01-01T06:26:26.473Z,13.85
2023-01-01T06:28:55.090Z,13.88
2023-01-01T06:31:22.006Z,13.93
2023-01-01T06:33:48.429Z,13.82
2023-01-01T06:36:15.155Z,13.90
2023-01-01T06:38:42.489Z,13.99
2023-01-01T06:41:10.577Z,14.00
2023-01-01T06:43:37.096Z,14.08
2023-01-01T06:46:06.822Z,14.06
2023-01-01T06:48:33.829Z,14.04
2023-01-01T06:51:06.391Z,14.07
2023-01-01T06:53:32.660Z,14.04
2023-01-01T06:55:58.871Z,14.05
2023-01-01T06:58:25.634Z,14.03
2023-01-01T07:00:52.232Z,13.91
2023-01-01T07:03:20.230Z,13.96
2023-01-01T07:05:46.470Z,14.07
2023-01-01T07:08:12.677Z,14.08
2023-01-01T07:10:38.894Z,14.12
2023-01-01T07:13:05.122Z,14.03
2023-01-01T07:15:31.427Z,14.07
2023-01-01T07:17:57.679Z,14.06
2023-01-01T07:20:28.167Z,14.11
2023-01-01T07:22:55.518Z,14.03
2023-01-01T07:25:21.947Z,13.98
2023-01-01T07:27:51.346Z,13.94
2023-01-01T07:30:17.586Z,13.99
2023-01-01T07:32:43.917Z,14.07
2023-01-01T07:35:10.225Z,14.00
2023-01-01T07:37:36.422Z,13.96
2023-01-01T07:40:05.936Z,13.87
2023-01-01T07:42:32.252Z,13.89
2023-01-01T07:44:58.693Z,14.02
2023-01-01T07:47:26.612Z,14.09
2023-01-01T07:49:52.845Z,14.05
2023-01-01T07:52:19.137Z,14.03
2023-01-01T07:54:45.392Z,14.04
2023-01-01T07:57:19.712Z,14.11
2023-01-01T07:59:50.241Z,14.08
2023-01-01T08:02:16.636Z,14.18
2023-01-01T08:04:49.795Z,14.19
2023-01-01T08:07:16.069Z,14.21
2023-01-01T08:09:52.768Z,14.12
2023-01-01T08:12:18.969Z,14.03
2023-01-01T08:14:45.391Z,14.03
2023-01-01T08:17:11.857Z,13.93
2023-01-01T08:19:38.072Z,14.01
2023-01-01T08:22:04.327Z,13.97
2023-01-01T08:24:30.820Z,14.00
2023-01-01T08:26:57.033Z,13.94
2023-01-01T08:29:23.265Z,13.98
2023-01-01T08:31:49.533Z,13.90
2023-01-01T08:34:15.737Z,13.95
2023-01-01T08:36:42.240Z,14.00
2023-01-01T08:39:08.475Z,13.96
2023-01-01T08:41:37.743Z,14.00
2023-01-01T08:44:07.122Z,13.99
2023-01-01T08:46:33.349Z,14.05
2023-01-01T08:48:59.566Z,14.02
2023-01-01T08:51:25.791Z,14.01
2023-01-01T08:53:52.006Z,13.92
2023-01-01T08:56:18.260Z,13.91
2023-01-01T08:58:46.223Z,13.86
2023-01-01T09:01:12.583Z,13.92
2023-01-01T09:03:39.185Z,13.96
2023-01-01T09:06:05.520Z,13.94
2023-01-01T09:08:31.780Z,14.01
2023-01-01T09:10:58.709Z,13.90
2023-01-01T09:13:24.912Z,13.92
2023-01-01T09:15:51.142Z,13.97
2023-01-01T09:18:17.509Z,13.87
2023-01-01T09:20:43.736Z,13.92
2023-01-01T09:23:10.307Z,13.99
2023-01-01T09:25:36.830Z,14.03
2023-01-01T09:28:10.995Z,14.02
2023-01-01T09:30:37.211Z,14.12
2023-01-01T09:33:03.448Z,14.06
2023-01-01T09:35:30.059Z,14.02
2023-01-01T09:37:56.971Z,14.03
2023-01-01T09:40:32.356Z,14.03
2023-01-01T09:43:12.591Z,14.13
2023-01-01T09:46:05.446Z,14.12
2023-01-01T09:48:31.782Z,14.17
2023-01-01T09:50:58.165Z,14.14
2023-01-01T09:53:39.699Z,14.24
2023-01-01T09:56:06.166Z,14.25
2023-01-01T09:58:33.354Z,14.22
2023-01-01T10:01:01.707Z,14.18
2023-01-01T10:03:36.233Z,14.10
2023-01-01T10:06:21.426Z,14.12
2023-01-01T10:08:54.327Z,14.04
2023-01-01T10:11:23.161Z,13.93
2023-01-01T10:13:49.388Z,14.05
2023-01-01T10:16:22.091Z,14.03
2023-01-01T10:18:51.283Z,14.01
2023-01-01T10:21:18.173Z,14.13
2023-01-01T10:23:45.396Z,14.10
2023-01-01T10:26:12.994Z,14.10
2023-01-01T10:28:43.349Z,14.19
2023-01-01T10:31:28.602Z,14.07
2023-01-01T10:33:54.855Z,13.93
2023-01-01T10:36:21.134Z,13.92
2023-01-01T10:38:50.533Z,13.95
2023-01-01T10:41:19.900Z,13.93
2023-01-01T10:43:46.529Z,13.85
2023-01-01T10:46:13.161Z,13.95
2023-01-01T10:48:39.454Z,13.91
2023-01-01T10:51:06.178Z,13.96
2023-01-01T10:53:39.132Z,13.93
2023-01-01T10:56:12.205Z,13.83
2023-01-01T10:58:42.587Z,13.98
2023-01-01T11:01:28.141Z,13.93
2023-01-01T11:04:19.361Z,13.91
2023-01-01T11:06:45.712Z,13.95
2023-01-01T11:09:26.707Z,13.89
2023-01-01T11:12:07.171Z,13.74
2023-01-01T11:14:40.966Z,13.66
2023-01-01T11:17:08.449Z,13.56
2023-01-01T11:19:35.398Z,13.42
2023-01-01T11:22:01.929Z,13.51
2023-01-01T11:24:30.210Z,13.40
2023-01-01T11:27:11.868Z,13.41
2023-01-01T11:29:46.640Z,13.52
2023-01-01T11:32:31.575Z,13.66
2023-01-01T11:34:58.454Z,13.57
2023-01-01T11:37:34.525Z,13.55
2023-01-01T11:40:09.165Z,13.53
2023-01-01T11:42:45.507Z,13.54
2023-01-01T11:45:22.366Z,13.73
2023-01-01T11:47:57.276Z,13.65
2023-01-01T11:50:25.497Z,13.67
2023-01-01T11:52:52.045Z,13.61
2023-01-01T11:55:20.077Z,13.61
2023-01-01T11:57:55.489Z,13.65
2023-01-01T12:00:21.811Z,13.53
2023-01-01T12:02:48.899Z,13.52
2023-01-01T12:05:17.111Z,13.43
2023-01-01T12:07:43.369Z,13.51
2023-01-01T12:10:17.756Z,13.44
2023-01-01T12:12:46.165Z,13.36
2023-01-01T12:15:15.466Z,13.26
2023-01-01T12:17:42.938Z,13.18
2023-01-01T12:20:13.295Z,13.06
2023-01-01T12:23:09.184Z,13.04
2023-01-01T12:34:59.360Z,13.21
2023-01-01T12:40:51.696Z,13.35
2023-01-01T12:43:36.733Z,13.35
2023-01-01T12:46:05.241Z,13.28
2023-01-01T12:48:45.578Z,13.28
2023-01-01T12:51:15.392Z,13.23
2023-01-01T12:53:45.950Z,13.12
2023-01-01T12:56:23.490Z,13.13
2023-01-01T12:58:57.076Z,13.16
2023-01-01T13:01:50.480Z,13.15
2023-01-01T13:04:20.244Z,13.16
2023-01-01T13:06:50.445Z,13.09
2023-01-01T13:09:17.808Z,13.13
2023-01-01T13:11:45.406Z,13.03
2023-01-01T13:14:11.904Z,13.05
2023-01-01T13:16:39.903Z,12.96
2023-01-01T13:19:06.142Z,12.96
2023-01-01T13:21:32.338Z,12.97
2023-01-01T13:24:05.022Z,12.94
2023-01-01T13:26:31.296Z,12.82
2023-01-01T13:28:57.480Z,12.77
2023-01-01T13:31:39.318Z,12.73
2023-01-01T13:34:24.509Z,12.55
2023-01-01T13:36:50.725Z,12.51
2023-01-01T13:39:35.627Z,12.37
2023-01-01T13:42:01.992Z,12.39
2023-01-01T13:44:28.347Z,12.38
2023-01-01T13:47:16.400Z,12.22
2023-01-01T13:50:12.413Z,12.16
2023-01-01T13:53:01.951Z,12.15
2023-01-01T13:55:35.012Z,12.15
2023-01-01T13:58:14.836Z,12.19
2023-01-01T14:01:02.203Z,12.22
2023-01-01T14:06:57.298Z,12.23
2023-01-01T14:09:29.017Z,12.14
2023-01-01T14:11:55.399Z,12.21
2023-01-01T14:17:17.020Z,11.95
2023-01-01T14:20:04.605Z,11.93
2023-01-01T14:22:47.337Z,12.02
2023-01-01T14:25:53.329Z,11.85
2023-01-01T14:28:34.063Z,11.92
2023-01-01T14:31:12.052Z,11.83
2023-01-01T14:33:46.994Z,11.73
2023-01-01T14:40:06.470Z,11.70
2023-01-01T14:42:32.689Z,11.70
2023-01-01T14:45:00.718Z,11.64
2023-01-01T14:47:29.042Z,11.53
2023-01-01T14:50:00.380Z,11.45
2023-01-01T14:52:27.179Z,11.45
2023-01-01T14:54:53.383Z,11.50
2023-01-01T14:57:26.782Z,11.43
2023-01-01T14:59:52.974Z,11.53
2023-01-01T15:02:22.990Z,11.45
2023-01-01T15:04:49.498Z,11.32
2023-01-01T15:07:19.788Z,11.24
2023-01-01T15:09:49.490Z,11.25
2023-01-01T15:12:15.803Z,11.15
2023-01-01T15:14:42.472Z,11.13
2023-01-01T15:17:09.433Z,11.10
2023-01-01T15:19:35.966Z,11.04
2023-01-01T15:22:07.531Z,11.11
2023-01-01T15:24:33.728Z,11.16
2023-01-01T15:27:00.148Z,11.15
2023-01-01T15:29:36.204Z,11.05
2023-01-01T15:34:03.905Z,10.84
2023-01-01T15:36:30.124Z,10.82
2023-01-01T15:38:56.340Z,10.76
2023-01-01T15:41:23.143Z,10.63
2023-01-01T15:43:49.354Z,10.61
2023-01-01T15:46:22.733Z,10.57
2023-01-01T15:48:51.985Z,10.61
2023-01-01T15:51:24.396Z,10.73
2023-01-01T15:53:53.662Z,10.68
2023-01-01T15:56:20.500Z,10.61
2023-01-01T15:58:46.641Z,10.48
2023-01-01T16:01:13.655Z,10.40
2023-01-01T16:03:40.609Z,10.42
2023-01-01T16:06:06.852Z,10.37
2023-01-01T16:08:33.195Z,10.40
2023-01-01T16:10:59.388Z,10.37
2023-01-01T16:13:25.735Z,10.47
2023-01-01T16:16:01.696Z,10.46
2023-01-01T16:18:31.590Z,10.43
2023-01-01T16:20:57.790Z,10.36
2023-01-01T16:23:24.038Z,10.29
2023-01-01T16:25:53.143Z,10.22
2023-01-01T16:28:19.422Z,10.16
2023-01-01T16:30:45.750Z,10.10
2023-01-01T16:33:15.703Z,10.04
2023-01-01T16:35:41.925Z,10.06
2023-01-01T16:38:08.148Z,10.06
2023-01-01T16:40:37.974Z,10.02
2023-01-01T16:43:04.650Z,10.08
2023-01-01T16:45:30.851Z,10.05
2023-01-01T16:47:57.057Z,9.99
2023-01-01T16:50:23.265Z,9.92
2023-01-01T16:52:49.490Z,9.86
2023-01-01T16:55:15.819Z,9.89
2023-01-01T16:57:42.034Z,10.00
2023-01-01T17:00:08.558Z,10.03
2023-01-01T17:02:35.121Z,10.04
2023-01-01T17:05:01.382Z,10.05
2023-01-01T17:07:27.590Z,10.00
2023-01-01T17:09:53.812Z,9.96
2023-01-01T17:12:20.111Z,9.94
2023-01-01T17:14:46.327Z,9.84
2023-01-01T17:17:12.715Z,9.78
2023-01-01T17:19:38.958Z,9.75
2023-01-01T17:22:05.172Z,9.74
2023-01-01T17:24:31.553Z,9.67
2023-01-01T17:26:57.757Z,9.63
2023-01-01T17:29:24.078Z,9.60
2023-01-01T17:31:50.474Z,9.54
2023-01-01T17:34:16.770Z,9.48
2023-01-01T17:36:43.257Z,9.49
2023-01-01T17:39:12.839Z,9.50
2023-01-01T17:41:39.340Z,9.52
2023-01-01T17:44:05.654Z,9.49
2023-01-01T17:46:31.873Z,9.49
2023-01-01T17:48:58.476Z,9.55
2023-01-01T17:51:24.717Z,9.62
2023-01-01T17:53:50.944Z,9.67
2023-01-01T17:56:20.251Z,9.65
2023-01-01T17:58:46.596Z,9.73
2023-01-01T18:01:12.998Z,9.74
2023-01-01T18:03:42.214Z,9.72
2023-01-01T18:06:08.972Z,9.81
2023-01-01T18:08:35.278Z,9.75
2023-01-01T18:11:01.496Z,9.71
2023-01-01T18:13:27.707Z,9.67
2023-01-01T18:15:53.974Z,9.66
2023-01-01T18:18:20.226Z,9.61
2023-01-01T18:20:46.449Z,9.56
2023-01-01T18:23:12.667Z,9.50
2023-01-01T18:25:39.212Z,9.47
2023-01-01T18:28:05.414Z,9.40
2023-01-01T18:30:31.648Z,9.31
2023-01-01T18:32:57.923Z,9.28
2023-01-01T18:35:24.213Z,9.23
2023-01-01T18:37:50.437Z,9.26
2023-01-01T18:40:16.806Z,9.22
2023-01-01T18:42:49.213Z,9.32
2023-01-01T18:45:19.555Z,9.33
2023-01-01T18:47:45.842Z,9.58
2023-01-01T18:50:22.122Z,9.61
2023-01-01T18:52:48.355Z,9.55
2023-01-01T18:55:14.920Z,9.57
2023-01-01T18:57:41.159Z,9.53
2023-01-01T19:00:15.588Z,9.55
2023-01-01T19:02:44.891Z,9.52
2023-01-01T19:05:15.368Z,9.60
2023-01-01T19:07:41.629Z,9.68
2023-01-01T19:10:11.627Z,9.60
2023-01-01T19:12:37.848Z,9.72
2023-01-01T19:15:14.240Z,9.74
2023-01-01T19:17:40.448Z,9.79
2023-01-01T19:20:13.589Z,9.85
2023-01-01T19:22:39.784Z,9.85
2023-01-01T19:25:26.255Z,9.91
2023-01-01T19:27:53.682Z,9.98
2023-01-01T19:30:20.976Z,9.95
2023-01-01T19:32:47.185Z,9.97
2023-01-01T19:35:16.450Z,9.91
2023-01-01T19:37:42.961Z,9.92
2023-01-01T19:40:09.358Z,9.87
2023-01-01T19:42:35.567Z,9.93
2023-01-01T19:45:01.873Z,9.87
2023-01-01T19:47:28.080Z,9.85
2023-01-01T19:49:55.837Z,9.88
2023-01-01T19:52:22.152Z,9.93
2023-01-01T19:54:48.358Z,10.00
2023-01-01T19:57:14.573Z,10.15
2023-01-01T19:59:40.810Z,10.07
2023-01-01T20:02:43.944Z,10.00
2023-01-01T20:04:54.445Z,10.02
2023-01-01T20:07:20.735Z,10.02
2023-01-01T20:09:46.950Z,10.06
2023-01-01T20:12:13.270Z,10.14
2023-01-01T20:14:39.742Z,10.18
2023-01-01T20:17:05.964Z,10.13
2023-01-01T20:19:32.222Z,10.10
2023-01-01T20:21:58.439Z,10.08
2023-01-01T20:24:24.647Z,10.08
2023-01-01T20:26:50.863Z,10.02
2023-01-01T20:29:17.072Z,9.96
2023-01-01T20:31:43.342Z,9.98
2023-01-01T20:34:09.616Z,9.97
2023-01-01T20:36:35.827Z,10.14
2023-01-01T20:39:02.095Z,10.21
2023-01-01T20:41:28.308Z,10.17
2023-01-01T20:43:55.255Z,10.16
2023-01-01T20:46:21.647Z,10.09
2023-01-01T20:48:47.926Z,10.26
2023-01-01T20:51:14.374Z,10.26
2023-01-01T20:53:40.585Z,10.28
2023-01-01T20:56:06.901Z,10.25
2023-01-01T20:58:33.161Z,10.18
2023-01-01T21:00:59.452Z,10.08
2023-01-01T21:03:25.702Z,10.03
2023-01-01T21:05:51.929Z,10.02
2023-01-01T21:08:18.137Z,9.99
2023-01-01T21:10:44.361Z,10.04
2023-01-01T21:13:10.571Z,9.96
2023-01-01T21:15:37.456Z,9.92
2023-01-01T21:18:03.916Z,9.92
2023-01-01T21:20:39.843Z,9.96
2023-01-01T21:23:06.682Z,9.97
2023-01-01T21:28:19.084Z,10.03
2023-01-01T21:30:49.234Z,10.09
2023-01-01T21:33:16.062Z,10.11
2023-01-01T21:35:42.294Z,10.12
2023-01-01T21:38:41.023Z,10.18
2023-01-01T21:41:15.137Z,10.17
2023-01-01T21:43:41.703Z,10.19
2023-01-01T21:46:08.041Z,10.19
2023-01-01T21:48:34.267Z,10.19
2023-01-01T21:51:00.562Z,10.16
2023-01-01T21:53:30.689Z,10.17
2023-01-01T21:55:57.046Z,10.22
2023-01-01T21:58:27.500Z,10.30
2023-01-01T22:00:53.767Z,10.29
2023-01-01T22:03:20.110Z,10.30
2023-01-01T22:05:46.351Z,10.38
2023-01-01T22:08:18.752Z,10.31
2023-01-01T22:10:44.968Z,10.33
2023-01-01T22:13:14.766Z,10.29
2023-01-01T22:15:41.338Z,10.31
2023-01-01T22:18:07.504Z,10.35
2023-01-01T22:20:33.778Z,10.33
2023-01-01T22:23:04.995Z,10.27
2023-01-01T22:25:31.794Z,10.24
2023-01-01T22:27:58.899Z,10.22
2023-01-01T22:30:25.055Z,10.20
2023-01-01T22:32:51.229Z,10.22
2023-01-01T22:35:18.273Z,10.21
2023-01-01T22:37:44.503Z,10.17
2023-01-01T22:40:31.026Z,10.21
2023-01-01T22:43:00.262Z,10.14
2023-01-01T22:48:13.932Z,10.06
2023-01-01T22:50:40.293Z,10.03
2023-01-01T22:53:06.557Z,9.98
2023-01-01T22:55:32.811Z,9.94
2023-01-01T22:57:59.055Z,9.94
2023-01-01T23:00:25.262Z,9.93
2023-01-01T23:02:51.511Z,9.94
2023-01-01T23:05:17.783Z,9.94
2023-01-01T23:07:43.988Z,9.92
2023-01-01T23:10:10.900Z,9.97
2023-01-01T23:12:37.141Z,9.97
2023-01-01T23:15:05.712Z,9.97
2023-01-01T23:17:31.916Z,9.97
2023-01-01T23:19:58.114Z,9.99
2023-01-01T23:22:24.534Z,9.95
2023-01-01T23:24:51.915Z,9.92
2023-01-01T23:27:18.135Z,9.93
2023-01-01T23:29:44.338Z,9.97
2023-01-01T23:32:10.640Z,9.89
2023-01-01T23:34:36.841Z,9.94
2023-01-01T23:37:03.180Z,9.88
2023-01-01T23:39:29.407Z,9.88
2023-01-01T23:41:55.613Z,9.87
2023-01-01T23:44:21.819Z,9.87
2023-01-01T23:46:48.121Z,9.87
2023-01-01T23:49:14.424Z,9.85
2023-01-01T23:51:40.631Z,9.83
2023-01-01T23:54:06.861Z,9.84
2023-01-01T23:56:33.078Z,9.83
2023-01-01T23:58:59.314Z,9.81
